Minerva Zen — SVBN3 — position and weather

sailwx.info

Track history (hours):
 
Tides and Currents Weather Stations Pressure Air Temp Water Temp Dewpoint Dewpoint Depression Visibility Wind Speed Wind Dir Waves Ship Positions

Minerva Zen

Last reported at 2014-Jul-29 02:33 UTC. Time now 2014-Jul-29 23:06 UTC.
Position N 36°24' E 023°13'.

Length 183 m; draft 11.4 m.

Type: Ship. MMSI: 241190000.

Date/timePositionNaut miles runAvg speedWind from/ knotsBaromVisibWave heightAir tempDewpointWater temp
2014-Jul-29 02:33N 36°24' E 023°13'1312.8
2014-Jul-29 01:33N 36°32' E 023°25'1312.7
2014-Jul-29 00:33N 36°40' E 023°37'1312.5
2014-Jul-28 23:31N 36°50' E 023°47'1212.5
2014-Jul-28 22:33N 37°00' E 023°55'1612.3
2014-Jul-28 21:18N 37°13' E 024°06'912.0
2014-Jul-28 20:33N 37°20' E 024°13'1311.8
2014-Jul-28 19:29N 37°31' E 024°22'1111.7
2014-Jul-28 18:33N 37°40' E 024°28'2811.4
2014-Jul-28 16:08N 38°06' E 024°41'611.2
2014-Jul-28 15:33N 38°12' E 024°45'1312.5
2014-Jul-28 14:31N 38°23' E 024°52'1212.4
2014-Jul-28 13:33N 38°34' E 024°59'1612.0
2014-Jul-28 12:13N 38°48' E 025°08'5712.0
2014-Jul-28 07:30N 39°39' E 025°41'1212.2
2014-Jul-28 06:33N 39°49' E 025°47'6910.6
2014-Jul-28 00:05N 40°31' E 026°59'7 4.1
2014-Jul-27 22:19N 40°30' E 027°08'  
2014-Jul-25 09:33N 42°23' E 034°26'  
2014-Jul-19 12:21N 39°51' E 025°52'  
Track history (hours):
 
Tides and Currents Weather Stations Pressure Air Temp Water Temp Dewpoint Dewpoint Depression Visibility Wind Speed Wind Dir Waves Ship Positions

Minerva Zen

Last reported at 2014-Jul-29 02:33 UTC. Time now 2014-Jul-29 23:06 UTC.
Position N 36°24' E 023°13'.

Length 183 m; draft 11.4 m.

Type: Ship. MMSI: 241190000.

Date/timePositionNaut miles runAvg speedWind from/ knotsBaromVisibWave heightAir tempDewpointWater temp
2014-Jul-29 02:33N 36°24' E 023°13'1312.8
2014-Jul-29 01:33N 36°32' E 023°25'1312.7
2014-Jul-29 00:33N 36°40' E 023°37'1312.5
2014-Jul-28 23:31N 36°50' E 023°47'1212.5
2014-Jul-28 22:33N 37°00' E 023°55'1612.3
2014-Jul-28 21:18N 37°13' E 024°06'912.0
2014-Jul-28 20:33N 37°20' E 024°13'1311.8
2014-Jul-28 19:29N 37°31' E 024°22'1111.7
2014-Jul-28 18:33N 37°40' E 024°28'2811.4
2014-Jul-28 16:08N 38°06' E 024°41'611.2
2014-Jul-28 15:33N 38°12' E 024°45'1312.5
2014-Jul-28 14:31N 38°23' E 024°52'1212.4
2014-Jul-28 13:33N 38°34' E 024°59'1612.0
2014-Jul-28 12:13N 38°48' E 025°08'5712.0
2014-Jul-28 07:30N 39°39' E 025°41'1212.2
2014-Jul-28 06:33N 39°49' E 025°47'6910.6
2014-Jul-28 00:05N 40°31' E 026°59'7 4.1
2014-Jul-27 22:19N 40°30' E 027°08'  
2014-Jul-25 09:33N 42°23' E 034°26'  
2014-Jul-19 12:21N 39°51' E 025°52'  

Dump ship's entire track history